Date,TemperatureHighF,TemperatureAvgF,TemperatureLowF,DewpointHighF,DewpointAvgF,DewpointLowF,HumidityHigh,HumidityAvg,HumidityLow,PressureMaxIn,PressureMinIn,WindSpeedMaxMPH,WindSpeedAvgMPH,GustSpeedMaxMPH,PrecipitationSumIn
2013-11-1,60.6,35.6,25.0,35.7,27.3,17.7,90,74,24,29.97,29.97,11,2,14,0.18
2013-11-2,52.5,40.0,29.1,32.0,27.3,23.6,84,62,42,29.97,29.97,18,6,22,0.00
2013-11-3,39.7,27.8,16.5,32.7,18.9,8.5,84,69,54,29.97,29.97,24,10,27,0.00
2013-11-4,30.9,21.2,15.6,19.7,11.6,5.4,76,66,51,29.97,29.97,16,5,20,0.00
2013-11-5,33.1,21.0,9.1,20.0,10.3,2.1,83,63,45,29.97,29.97,14,4,17,0.00
2013-11-6,35.6,29.2,24.4,27.3,22.7,17.9,81,76,71,29.97,29.97,14,7,17,0.00
2013-11-7,43.0,37.1,32.4,34.8,30.0,25.4,92,76,60,29.97,29.97,20,5,24,0.17
2013-11-8,41.7,37.9,35.4,30.9,26.5,15.2,75,64,41,29.97,29.97,24,10,36,0.01
2013-11-17,40.5,30.4,26.4,28.5,19.7,14.9,75,64,59,29.97,29.97,32,6,12,1.44
2013-11-18,51.4,38.9,26.4,28.4,23.3,14.0,72,54,32,29.97,29.97,14,3,18,0.01
2013-11-19,41.9,35.3,33.4,30.7,29.5,25.4,87,80,53,29.97,29.97,19,7,23,0.13
2013-11-20,36.9,32.7,21.9,31.1,27.9,17.8,90,82,73,29.97,29.97,15,5,20,0.11
2013-11-21,31.1,17.7,7.3,20.7,10.5,-0.6,85,73,55,29.97,29.97,8,0,9,0.03
2013-11-22,55.6,20.5,6.1,13.5,3.5,-5.8,67,50,18,29.97,29.97,11,2,15,0.03
2013-11-23,54.5,25.8,10.9,24.6,9.2,1.0,68,50,19,29.97,29.97,11,2,14,0.03
2013-11-24,51.1,26.1,16.0,20.3,7.3,-2.8,70,46,20,29.97,29.97,9,1,12,0.00
2013-11-25,50.4,25.8,16.2,24.9,13.8,6.5,74,61,34,29.97,29.97,7,0,9,0.00
2013-11-26,55.6,31.6,19.6,28.5,17.1,8.4,68,56,26,29.97,29.97,10,1,13,0.00
2013-11-27,61.9,35.7,26.6,31.3,18.4,9.8,74,51,18,29.97,29.97,10,2,11,0.00
2013-11-28,52.9,35.7,25.2,30.2,20.5,11.6,73,55,27,29.97,29.97,9,2,13,0.00
2013-11-29,52.9,33.0,25.5,28.6,20.3,12.9,74,60,38,29.97,29.97,10,2,13,0.00
2013-11-30,38.7,32.9,25.7,27.9,23.2,17.4,76,67,58,29.97,29.97,13,5,16,0.00